My Darlings Danama — 2EQE4 — position and weather

sailwx.info

Track history (hours):
 
Tides and Currents Weather Stations Pressure Air Temp Water Temp Dewpoint Dewpoint Depression Visibility Wind Speed Wind Dir Waves Ship Positions

My Darlings Danama

Last reported at 2013-Aug-22 07:05 UTC. Time now 2014-Nov-28 13:30 UTC.
Position N 43°10' E 005°37'.
Warning: this ship's position is years out of date!

Length 60 m; draft 3.2 m.

Type: Ship. MMSI: 235087264.

Date/timePositionNaut miles runAvg speedWind from/ knotsBaromVisibWave heightAir tempDewpointWater temp
2013-Aug-22 07:05N 43°10' E 005°37'0 0.0
2013-Aug-22 06:29N 43°10' E 005°37'0 0.0
2013-Aug-21 19:26N 43°10' E 005°37'0 0.0
2013-Aug-21 17:14N 43°10' E 005°37'0 0.0
2013-Aug-21 15:32N 43°10' E 005°37'  
2013-Aug-17 13:31N 43°09' E 005°40'1111.3
2013-Aug-17 12:33N 43°02' E 005°51'1211.9
2013-Aug-17 11:33N 42°58' E 006°06'1312.5
2013-Aug-17 10:33N 42°58' E 006°24'1312.5
2013-Aug-17 09:34N 43°04' E 006°38'1313.2
2013-Aug-17 08:33N 43°15' E 006°49'1212.2
2013-Aug-17 07:33N 43°25' E 006°59'1212.1
2013-Aug-17 06:34N 43°34' E 007°09'2 1.4
2013-Aug-17 05:29N 43°35' E 007°08'0 0.0
2013-Aug-17 04:23N 43°35' E 007°08'0 0.0
2013-Aug-17 03:12N 43°35' E 007°08'0 0.0
2013-Aug-17 02:30N 43°35' E 007°08'0 0.0
2013-Aug-17 00:29N 43°35' E 007°08'0 0.0
2013-Aug-16 23:32N 43°35' E 007°08'0 0.0
2013-Aug-16 22:20N 43°35' E 007°08'0 0.0
2013-Aug-16 21:32N 43°35' E 007°08'0 0.0
2013-Aug-16 20:29N 43°35' E 007°08'0 0.0
2013-Aug-16 19:26N 43°35' E 007°08'6 0.2
2013-Aug-15 15:34N 43°32' E 007°15'9 9.3
2013-Aug-15 14:33N 43°28' E 007°26'4 3.5
2013-Aug-15 13:33N 43°25' E 007°24'4 4.0
2013-Aug-15 12:34N 43°28' E 007°28'2 1.9
2013-Aug-15 11:33N 43°28' E 007°25'3 2.9
2013-Aug-15 10:33N 43°25' E 007°25'3 3.1
2013-Aug-15 09:33N 43°23' E 007°22'1413.6
2013-Aug-15 08:34N 43°34' E 007°10'2 2.0
2013-Aug-15 07:33N 43°35' E 007°08'0 0.0
2013-Aug-15 06:33N 43°35' E 007°08'0 0.0
2013-Aug-15 05:30N 43°35' E 007°08'0 0.0
2013-Aug-15 04:33N 43°35' E 007°08'0 0.0
2013-Aug-15 03:33N 43°35' E 007°08'0 0.0
2013-Aug-15 02:33N 43°35' E 007°08'0 0.0
2013-Aug-15 01:33N 43°35' E 007°08'0 0.0
2013-Aug-15 00:33N 43°35' E 007°08'0 0.0
2013-Aug-14 23:33N 43°35' E 007°08'0 0.0
2013-Aug-14 22:33N 43°35' E 007°08'0 0.0
2013-Aug-14 21:33N 43°35' E 007°08'0 0.0
2013-Aug-14 20:27N 43°35' E 007°08'0 0.0
2013-Aug-14 19:33N 43°35' E 007°08'0 0.0
2013-Aug-14 18:33N 43°35' E 007°08'0 0.0
2013-Aug-14 17:33N 43°35' E 007°08'0 0.0
2013-Aug-14 16:21N 43°35' E 007°08'0 0.0
2013-Aug-14 15:33N 43°35' E 007°08'0 0.0
2013-Aug-14 14:33N 43°35' E 007°08'0 0.0
2013-Aug-14 12:33N 43°35' E 007°08'0 0.0
2013-Aug-14 11:27N 43°35' E 007°08'0 0.0
2013-Aug-14 10:33N 43°35' E 007°08'0 0.0
2013-Aug-14 09:33N 43°35' E 007°08'0 0.0
2013-Aug-14 08:33N 43°35' E 007°08'0 0.0
2013-Aug-14 07:21N 43°35' E 007°08'0 0.0
2013-Aug-14 06:33N 43°35' E 007°08'0 0.0
2013-Aug-14 05:33N 43°35' E 007°08'0 0.0
2013-Aug-14 04:18N 43°35' E 007°08'0 0.0
2013-Aug-14 03:33N 43°35' E 007°08'0 0.0
2013-Aug-14 02:33N 43°35' E 007°08'0 0.0
2013-Aug-14 01:30N 43°35' E 007°08'0 0.0
2013-Aug-14 00:33N 43°35' E 007°08'0 0.0
2013-Aug-13 23:33N 43°35' E 007°08'0 0.0
2013-Aug-13 22:33N 43°35' E 007°08'0 0.0
2013-Aug-13 21:24N 43°35' E 007°08'0 0.0
2013-Aug-13 20:33N 43°35' E 007°08'0 0.0
2013-Aug-13 19:33N 43°35' E 007°08'0 0.0
2013-Aug-13 18:30N 43°35' E 007°08'0 0.0
2013-Aug-13 17:30N 43°35' E 007°08'0 0.0
2013-Aug-13 16:12N 43°35' E 007°08'0 0.0
2013-Aug-13 15:33N 43°35' E 007°08'0 0.0
2013-Aug-13 14:30N 43°35' E 007°08'0 0.0
2013-Aug-13 13:30N 43°35' E 007°08'0 0.0
2013-Aug-13 12:33N 43°35' E 007°08'0 0.0
2013-Aug-13 11:33N 43°35' E 007°08'0 0.0
2013-Aug-13 10:24N 43°35' E 007°08'0 0.0
2013-Aug-13 09:30N 43°35' E 007°08'0 0.0
2013-Aug-13 08:30N 43°35' E 007°08'0 0.0
2013-Aug-13 07:30N 43°35' E 007°08'0 0.0
2013-Aug-13 06:33N 43°35' E 007°08'0 0.0
2013-Aug-13 05:33N 43°35' E 007°08'0 0.0
2013-Aug-13 04:30N 43°35' E 007°08'0 0.0
2013-Aug-13 03:27N 43°35' E 007°08'0 0.0
2013-Aug-13 02:28N 43°35' E 007°08'0 0.0
2013-Aug-13 01:30N 43°35' E 007°08'0 0.0
2013-Aug-13 00:30N 43°35' E 007°08'0 0.0
2013-Aug-12 23:33N 43°35' E 007°08'0 0.0
2013-Aug-12 22:27N 43°35' E 007°08'0 0.0
2013-Aug-12 21:33N 43°35' E 007°08'0 0.0
2013-Aug-12 20:30N 43°35' E 007°08'0 0.0
2013-Aug-12 19:33N 43°35' E 007°08'0 0.0
2013-Aug-12 18:33N 43°35' E 007°08'0 0.0
2013-Aug-12 17:33N 43°35' E 007°08'0 0.0
2013-Aug-12 16:09N 43°35' E 007°08'0 0.0
2013-Aug-12 15:31N 43°35' E 007°08'0 0.0
2013-Aug-12 14:03N 43°35' E 007°08'0 0.0
2013-Aug-12 13:33N 43°35' E 007°08'0 0.0
2013-Aug-12 12:31N 43°35' E 007°08'0 0.0
2013-Aug-12 11:33N 43°35' E 007°08'0 0.0
2013-Aug-12 10:33N 43°35' E 007°08'0 0.0
2013-Aug-12 09:31N 43°35' E 007°08'0 0.0
2013-Aug-12 08:17N 43°35' E 007°08'0 0.0
2013-Aug-12 07:33N 43°35' E 007°08'  
Track history (hours):
 
Tides and Currents Weather Stations Pressure Air Temp Water Temp Dewpoint Dewpoint Depression Visibility Wind Speed Wind Dir Waves Ship Positions

My Darlings Danama

Last reported at 2013-Aug-22 07:05 UTC. Time now 2014-Nov-28 13:30 UTC.
Position N 43°10' E 005°37'.
Warning: this ship's position is years out of date!

Length 60 m; draft 3.2 m.

Type: Ship. MMSI: 235087264.

Date/timePositionNaut miles runAvg speedWind from/ knotsBaromVisibWave heightAir tempDewpointWater temp
2013-Aug-22 07:05N 43°10' E 005°37'0 0.0
2013-Aug-22 06:29N 43°10' E 005°37'0 0.0
2013-Aug-21 19:26N 43°10' E 005°37'0 0.0
2013-Aug-21 17:14N 43°10' E 005°37'0 0.0
2013-Aug-21 15:32N 43°10' E 005°37'  
2013-Aug-17 13:31N 43°09' E 005°40'1111.3
2013-Aug-17 12:33N 43°02' E 005°51'1211.9
2013-Aug-17 11:33N 42°58' E 006°06'1312.5
2013-Aug-17 10:33N 42°58' E 006°24'1312.5
2013-Aug-17 09:34N 43°04' E 006°38'1313.2
2013-Aug-17 08:33N 43°15' E 006°49'1212.2
2013-Aug-17 07:33N 43°25' E 006°59'1212.1
2013-Aug-17 06:34N 43°34' E 007°09'2 1.4
2013-Aug-17 05:29N 43°35' E 007°08'0 0.0
2013-Aug-17 04:23N 43°35' E 007°08'0 0.0
2013-Aug-17 03:12N 43°35' E 007°08'0 0.0
2013-Aug-17 02:30N 43°35' E 007°08'0 0.0
2013-Aug-17 00:29N 43°35' E 007°08'0 0.0
2013-Aug-16 23:32N 43°35' E 007°08'0 0.0
2013-Aug-16 22:20N 43°35' E 007°08'0 0.0
2013-Aug-16 21:32N 43°35' E 007°08'0 0.0
2013-Aug-16 20:29N 43°35' E 007°08'0 0.0
2013-Aug-16 19:26N 43°35' E 007°08'6 0.2
2013-Aug-15 15:34N 43°32' E 007°15'9 9.3
2013-Aug-15 14:33N 43°28' E 007°26'4 3.5
2013-Aug-15 13:33N 43°25' E 007°24'4 4.0
2013-Aug-15 12:34N 43°28' E 007°28'2 1.9
2013-Aug-15 11:33N 43°28' E 007°25'3 2.9
2013-Aug-15 10:33N 43°25' E 007°25'3 3.1
2013-Aug-15 09:33N 43°23' E 007°22'1413.6
2013-Aug-15 08:34N 43°34' E 007°10'2 2.0
2013-Aug-15 07:33N 43°35' E 007°08'0 0.0
2013-Aug-15 06:33N 43°35' E 007°08'0 0.0
2013-Aug-15 05:30N 43°35' E 007°08'0 0.0
2013-Aug-15 04:33N 43°35' E 007°08'0 0.0
2013-Aug-15 03:33N 43°35' E 007°08'0 0.0
2013-Aug-15 02:33N 43°35' E 007°08'0 0.0
2013-Aug-15 01:33N 43°35' E 007°08'0 0.0
2013-Aug-15 00:33N 43°35' E 007°08'0 0.0
2013-Aug-14 23:33N 43°35' E 007°08'0 0.0
2013-Aug-14 22:33N 43°35' E 007°08'0 0.0
2013-Aug-14 21:33N 43°35' E 007°08'0 0.0
2013-Aug-14 20:27N 43°35' E 007°08'0 0.0
2013-Aug-14 19:33N 43°35' E 007°08'0 0.0
2013-Aug-14 18:33N 43°35' E 007°08'0 0.0
2013-Aug-14 17:33N 43°35' E 007°08'0 0.0
2013-Aug-14 16:21N 43°35' E 007°08'0 0.0
2013-Aug-14 15:33N 43°35' E 007°08'0 0.0
2013-Aug-14 14:33N 43°35' E 007°08'0 0.0
2013-Aug-14 12:33N 43°35' E 007°08'0 0.0
2013-Aug-14 11:27N 43°35' E 007°08'0 0.0
2013-Aug-14 10:33N 43°35' E 007°08'0 0.0
2013-Aug-14 09:33N 43°35' E 007°08'0 0.0
2013-Aug-14 08:33N 43°35' E 007°08'0 0.0
2013-Aug-14 07:21N 43°35' E 007°08'0 0.0
2013-Aug-14 06:33N 43°35' E 007°08'0 0.0
2013-Aug-14 05:33N 43°35' E 007°08'0 0.0
2013-Aug-14 04:18N 43°35' E 007°08'0 0.0
2013-Aug-14 03:33N 43°35' E 007°08'0 0.0
2013-Aug-14 02:33N 43°35' E 007°08'0 0.0
2013-Aug-14 01:30N 43°35' E 007°08'0 0.0
2013-Aug-14 00:33N 43°35' E 007°08'0 0.0
2013-Aug-13 23:33N 43°35' E 007°08'0 0.0
2013-Aug-13 22:33N 43°35' E 007°08'0 0.0
2013-Aug-13 21:24N 43°35' E 007°08'0 0.0
2013-Aug-13 20:33N 43°35' E 007°08'0 0.0
2013-Aug-13 19:33N 43°35' E 007°08'0 0.0
2013-Aug-13 18:30N 43°35' E 007°08'0 0.0
2013-Aug-13 17:30N 43°35' E 007°08'0 0.0
2013-Aug-13 16:12N 43°35' E 007°08'0 0.0
2013-Aug-13 15:33N 43°35' E 007°08'0 0.0
2013-Aug-13 14:30N 43°35' E 007°08'0 0.0
2013-Aug-13 13:30N 43°35' E 007°08'0 0.0
2013-Aug-13 12:33N 43°35' E 007°08'0 0.0
2013-Aug-13 11:33N 43°35' E 007°08'0 0.0
2013-Aug-13 10:24N 43°35' E 007°08'0 0.0
2013-Aug-13 09:30N 43°35' E 007°08'0 0.0
2013-Aug-13 08:30N 43°35' E 007°08'0 0.0
2013-Aug-13 07:30N 43°35' E 007°08'0 0.0
2013-Aug-13 06:33N 43°35' E 007°08'0 0.0
2013-Aug-13 05:33N 43°35' E 007°08'0 0.0
2013-Aug-13 04:30N 43°35' E 007°08'0 0.0
2013-Aug-13 03:27N 43°35' E 007°08'0 0.0
2013-Aug-13 02:28N 43°35' E 007°08'0 0.0
2013-Aug-13 01:30N 43°35' E 007°08'0 0.0
2013-Aug-13 00:30N 43°35' E 007°08'0 0.0
2013-Aug-12 23:33N 43°35' E 007°08'0 0.0
2013-Aug-12 22:27N 43°35' E 007°08'0 0.0
2013-Aug-12 21:33N 43°35' E 007°08'0 0.0
2013-Aug-12 20:30N 43°35' E 007°08'0 0.0
2013-Aug-12 19:33N 43°35' E 007°08'0 0.0
2013-Aug-12 18:33N 43°35' E 007°08'0 0.0
2013-Aug-12 17:33N 43°35' E 007°08'0 0.0
2013-Aug-12 16:09N 43°35' E 007°08'0 0.0
2013-Aug-12 15:31N 43°35' E 007°08'0 0.0
2013-Aug-12 14:03N 43°35' E 007°08'0 0.0
2013-Aug-12 13:33N 43°35' E 007°08'0 0.0
2013-Aug-12 12:31N 43°35' E 007°08'0 0.0
2013-Aug-12 11:33N 43°35' E 007°08'0 0.0
2013-Aug-12 10:33N 43°35' E 007°08'0 0.0
2013-Aug-12 09:31N 43°35' E 007°08'0 0.0
2013-Aug-12 08:17N 43°35' E 007°08'0 0.0
2013-Aug-12 07:33N 43°35' E 007°08'  

Dump ship's entire track history